sensor_id;sensor_type;location;lat;lon;timestamp;pressure;altitude;pressure_sealevel;temperature;humidity
69127;BME280;56688;50.234;19.292;2024-01-07T00:01:47;97903.45;;;0.28;79.45
69127;BME280;56688;50.234;19.292;2024-01-07T00:04:15;97902.98;;;0.23;79.49
69127;BME280;56688;50.234;19.292;2024-01-07T00:06:43;97901.73;;;0.21;79.47
69127;BME280;56688;50.234;19.292;2024-01-07T00:09:11;97907.14;;;0.20;79.68
69127;BME280;56688;50.234;19.292;2024-01-07T00:11:40;97906.61;;;0.20;79.67
69127;BME280;56688;50.234;19.292;2024-01-07T00:14:07;97906.34;;;0.19;79.97
69127;BME280;56688;50.234;19.292;2024-01-07T00:16:34;97906.34;;;0.15;79.62
69127;BME280;56688;50.234;19.292;2024-01-07T00:19:01;97908.94;;;0.10;79.48
69127;BME280;56688;50.234;19.292;2024-01-07T00:21:28;97908.52;;;0.09;79.69
69127;BME280;56688;50.234;19.292;2024-01-07T00:23:55;97910.11;;;0.08;79.60
69127;BME280;56688;50.234;19.292;2024-01-07T00:26:22;97912.95;;;0.08;79.69
69127;BME280;56688;50.234;19.292;2024-01-07T00:28:50;97915.52;;;0.05;79.46
69127;BME280;56688;50.234;19.292;2024-01-07T00:31:17;97918.61;;;0.02;79.70
69127;BME280;56688;50.234;19.292;2024-01-07T00:33:45;97914.80;;;-0.03;79.07
69127;BME280;56688;50.234;19.292;2024-01-07T00:36:12;97913.35;;;-0.11;79.06
69127;BME280;56688;50.234;19.292;2024-01-07T00:38:39;97920.59;;;-0.11;79.33
69127;BME280;56688;50.234;19.292;2024-01-07T00:41:06;97921.59;;;-0.09;79.64
69127;BME280;56688;50.234;19.292;2024-01-07T00:43:33;97922.64;;;-0.11;79.34
69127;BME280;56688;50.234;19.292;2024-01-07T00:45:59;97924.33;;;-0.12;79.34
69127;BME280;56688;50.234;19.292;2024-01-07T00:48:26;97925.27;;;-0.13;79.62
69127;BME280;56688;50.234;19.292;2024-01-07T00:50:54;97932.59;;;-0.14;79.44
69127;BME280;56688;50.234;19.292;2024-01-07T00:53:21;97937.23;;;-0.15;79.59
69127;BME280;56688;50.234;19.292;2024-01-07T00:55:49;97943.29;;;-0.16;79.49
69127;BME280;56688;50.234;19.292;2024-01-07T00:58:16;97942.58;;;-0.18;79.48
69127;BME280;56688;50.234;19.292;2024-01-07T01:00:43;97942.02;;;-0.18;79.61
69127;BME280;56688;50.234;19.292;2024-01-07T01:03:11;97940.36;;;-0.19;79.54
69127;BME280;56688;50.234;19.292;2024-01-07T01:05:38;97943.22;;;-0.23;79.19
69127;BME280;56688;50.234;19.292;2024-01-07T01:08:05;97945.96;;;-0.33;78.87
69127;BME280;56688;50.234;19.292;2024-01-07T01:10:32;97945.23;;;-0.39;78.93
69127;BME280;56688;50.234;19.292;2024-01-07T01:12:59;97945.98;;;-0.41;79.14
69127;BME280;56688;50.234;19.292;2024-01-07T01:15:27;97951.31;;;-0.42;79.21
69127;BME280;56688;50.234;19.292;2024-01-07T01:17:55;97953.06;;;-0.42;79.30
69127;BME280;56688;50.234;19.292;2024-01-07T01:20:22;97953.45;;;-0.42;79.39
69127;BME280;56688;50.234;19.292;2024-01-07T01:22:49;97952.27;;;-0.45;79.35
69127;BME280;56688;50.234;19.292;2024-01-07T01:25:16;97957.04;;;-0.47;79.41
69127;BME280;56688;50.234;19.292;2024-01-07T01:27:43;97958.80;;;-0.50;79.37
69127;BME280;56688;50.234;19.292;2024-01-07T01:30:11;97960.92;;;-0.52;79.18
69127;BME280;56688;50.234;19.292;2024-01-07T01:32:39;97960.34;;;-0.56;79.01
69127;BME280;56688;50.234;19.292;2024-01-07T01:35:07;97963.58;;;-0.59;79.04
69127;BME280;56688;50.234;19.292;2024-01-07T01:37:34;97961.23;;;-0.60;79.25
69127;BME280;56688;50.234;19.292;2024-01-07T01:40:01;97960.39;;;-0.60;79.26
69127;BME280;56688;50.234;19.292;2024-01-07T01:42:28;97961.93;;;-0.64;79.19
69127;BME280;56688;50.234;19.292;2024-01-07T01:44:55;97966.05;;;-0.67;78.96
69127;BME280;56688;50.234;19.292;2024-01-07T01:47:27;97964.48;;;-0.73;78.90
69127;BME280;56688;50.234;19.292;2024-01-07T01:49:54;97969.85;;;-0.75;78.67
69127;BME280;56688;50.234;19.292;2024-01-07T01:52:22;97971.23;;;-0.78;78.58
69127;BME280;56688;50.234;19.292;2024-01-07T01:54:50;97970.46;;;-0.84;78.55
69127;BME280;56688;50.234;19.292;2024-01-07T01:57:20;97980.48;;;-0.89;78.33
69127;BME280;56688;50.234;19.292;2024-01-07T01:59:49;97979.70;;;-0.96;78.15
69127;BME280;56688;50.234;19.292;2024-01-07T02:02:16;97978.87;;;-1.03;78.17
69127;BME280;56688;50.234;19.292;2024-01-07T02:04:43;97975.45;;;-1.08;78.18
69127;BME280;56688;50.234;19.292;2024-01-07T02:07:10;97977.06;;;-1.08;78.66
69127;BME280;56688;50.234;19.292;2024-01-07T02:09:39;97975.14;;;-1.06;79.01
69127;BME280;56688;50.234;19.292;2024-01-07T02:12:07;97971.89;;;-1.05;78.93
69127;BME280;56688;50.234;19.292;2024-01-07T02:14:39;97974.92;;;-1.02;78.95
69127;BME280;56688;50.234;19.292;2024-01-07T02:17:06;97969.40;;;-1.00;78.91
69127;BME280;56688;50.234;19.292;2024-01-07T02:19:33;97972.70;;;-1.02;79.07
69127;BME280;56688;50.234;19.292;2024-01-07T02:22:00;97976.80;;;-1.05;78.91
69127;BME280;56688;50.234;19.292;2024-01-07T02:24:27;97978.20;;;-1.03;78.97
69127;BME280;56688;50.234;19.292;2024-01-07T02:26:56;97985.11;;;-1.00;79.11
69127;BME280;56688;50.234;19.292;2024-01-07T02:29:24;97984.51;;;-0.99;79.07
69127;BME280;56688;50.234;19.292;2024-01-07T02:31:51;97982.68;;;-1.02;78.74
69127;BME280;56688;50.234;19.292;2024-01-07T02:34:18;97984.94;;;-1.08;78.08
69127;BME280;56688;50.234;19.292;2024-01-07T02:36:45;97984.61;;;-1.19;77.88
69127;BME280;56688;50.234;19.292;2024-01-07T02:39:12;97985.63;;;-1.27;77.89
69127;BME280;56688;50.234;19.292;2024-01-07T02:41:40;97989.75;;;-1.33;77.81
69127;BME280;56688;50.234;19.292;2024-01-07T02:44:06;97991.25;;;-1.36;77.84
69127;BME280;56688;50.234;19.292;2024-01-07T02:46:38;97993.09;;;-1.39;77.61
69127;BME280;56688;50.234;19.292;2024-01-07T02:49:05;97987.65;;;-1.43;77.67
69127;BME280;56688;50.234;19.292;2024-01-07T02:51:32;97984.94;;;-1.46;77.78
69127;BME280;56688;50.234;19.292;2024-01-07T02:54:00;97990.33;;;-1.50;77.47
69127;BME280;56688;50.234;19.292;2024-01-07T02:56:27;97990.27;;;-1.52;77.66
69127;BME280;56688;50.234;19.292;2024-01-07T02:58:54;97992.86;;;-1.54;77.82
69127;BME280;56688;50.234;19.292;2024-01-07T03:01:22;97995.15;;;-1.54;77.73
69127;BME280;56688;50.234;19.292;2024-01-07T03:03:50;97991.05;;;-1.55;77.51
69127;BME280;56688;50.234;19.292;2024-01-07T03:06:17;97993.44;;;-1.58;77.70
69127;BME280;56688;50.234;19.292;2024-01-07T03:08:44;97995.78;;;-1.64;77.73
69127;BME280;56688;50.234;19.292;2024-01-07T03:11:11;97994.36;;;-1.68;77.94
69127;BME280;56688;50.234;19.292;2024-01-07T03:13:40;97992.30;;;-1.70;78.16
69127;BME280;56688;50.234;19.292;2024-01-07T03:16:06;97995.70;;;-1.71;77.98
69127;BME280;56688;50.234;19.292;2024-01-07T03:18:34;97993.94;;;-1.73;78.09
69127;BME280;56688;50.234;19.292;2024-01-07T03:21:01;97996.17;;;-1.73;78.38
69127;BME280;56688;50.234;19.292;2024-01-07T03:23:28;97994.95;;;-1.73;78.22
69127;BME280;56688;50.234;19.292;2024-01-07T03:25:58;97992.48;;;-1.75;78.17
69127;BME280;56688;50.234;19.292;2024-01-07T03:28:24;97989.92;;;-1.75;78.11
69127;BME280;56688;50.234;19.292;2024-01-07T03:30:51;97991.41;;;-1.77;78.32
69127;BME280;56688;50.234;19.292;2024-01-07T03:33:18;97990.91;;;-1.77;78.29
69127;BME280;56688;50.234;19.292;2024-01-07T03:35:46;97988.50;;;-1.75;78.35
69127;BME280;56688;50.234;19.292;2024-01-07T03:38:12;97989.09;;;-1.72;78.55
69127;BME280;56688;50.234;19.292;2024-01-07T03:40:40;97992.39;;;-1.70;78.50
69127;BME280;56688;50.234;19.292;2024-01-07T03:43:07;97991.70;;;-1.70;78.23
69127;BME280;56688;50.234;19.292;2024-01-07T03:45:34;97996.06;;;-1.69;78.19
69127;BME280;56688;50.234;19.292;2024-01-07T03:48:01;97999.56;;;-1.72;77.98
69127;BME280;56688;50.234;19.292;2024-01-07T03:50:28;98000.65;;;-1.74;77.92
69127;BME280;56688;50.234;19.292;2024-01-07T03:52:55;98003.66;;;-1.77;78.12
69127;BME280;56688;50.234;19.292;2024-01-07T03:55:24;98007.78;;;-1.76;77.67
69127;BME280;56688;50.234;19.292;2024-01-07T03:57:51;98013.15;;;-1.78;77.62
69127;BME280;56688;50.234;19.292;2024-01-07T04:00:18;98011.65;;;-1.79;77.54
69127;BME280;56688;50.234;19.292;2024-01-07T04:02:45;98011.34;;;-1.81;77.04
69127;BME280;56688;50.234;19.292;2024-01-07T04:05:12;98016.14;;;-1.85;76.89
69127;BME280;56688;50.234;19.292;2024-01-07T04:07:39;98016.69;;;-1.91;77.02
69127;BME280;56688;50.234;19.292;2024-01-07T04:10:06;98016.84;;;-1.98;77.06
69127;BME280;56688;50.234;19.292;2024-01-07T04:12:33;98019.45;;;-2.00;77.31
69127;BME280;56688;50.234;19.292;2024-01-07T04:15:00;98022.92;;;-1.99;77.44
69127;BME280;56688;50.234;19.292;2024-01-07T04:17:27;98024.16;;;-2.00;77.44
69127;BME280;56688;50.234;19.292;2024-01-07T04:19:54;98028.55;;;-2.00;77.25
69127;BME280;56688;50.234;19.292;2024-01-07T04:22:21;98029.58;;;-2.02;77.07
69127;BME280;56688;50.234;19.292;2024-01-07T04:24:48;98028.83;;;-2.08;76.94
69127;BME280;56688;50.234;19.292;2024-01-07T04:27:15;98031.31;;;-2.09;77.24
69127;BME280;56688;50.234;19.292;2024-01-07T04:29:42;98032.30;;;-2.08;77.02
69127;BME280;56688;50.234;19.292;2024-01-07T04:32:09;98028.74;;;-2.09;77.15
69127;BME280;56688;50.234;19.292;2024-01-07T04:34:36;98028.10;;;-2.10;77.23
69127;BME280;56688;50.234;19.292;2024-01-07T04:37:03;98030.27;;;-2.11;77.19
69127;BME280;56688;50.234;19.292;2024-01-07T04:39:30;98034.59;;;-2.14;76.97
69127;BME280;56688;50.234;19.292;2024-01-07T04:41:57;98034.63;;;-2.15;77.32
69127;BME280;56688;50.234;19.292;2024-01-07T04:44:24;98041.35;;;-2.14;77.48
69127;BME280;56688;50.234;19.292;2024-01-07T04:46:51;98037.79;;;-2.09;77.83
69127;BME280;56688;50.234;19.292;2024-01-07T04:49:18;98042.03;;;-2.05;77.99
69127;BME280;56688;50.234;19.292;2024-01-07T04:51:45;98042.06;;;-2.01;78.00
69127;BME280;56688;50.234;19.292;2024-01-07T04:54:12;98046.11;;;-1.97;78.05
69127;BME280;56688;50.234;19.292;2024-01-07T04:56:39;98044.84;;;-1.94;77.96
69127;BME280;56688;50.234;19.292;2024-01-07T04:59:06;98049.60;;;-1.95;77.77
69127;BME280;56688;50.234;19.292;2024-01-07T05:01:33;98051.15;;;-1.94;77.61
69127;BME280;56688;50.234;19.292;2024-01-07T05:04:02;98051.77;;;-1.96;77.44
69127;BME280;56688;50.234;19.292;2024-01-07T05:06:29;98054.01;;;-1.95;77.38
69127;BME280;56688;50.234;19.292;2024-01-07T05:08:56;98059.92;;;-1.97;77.18
69127;BME280;56688;50.234;19.292;2024-01-07T05:11:23;98059.73;;;-1.99;77.04
69127;BME280;56688;50.234;19.292;2024-01-07T05:13:50;98063.36;;;-2.01;77.08
69127;BME280;56688;50.234;19.292;2024-01-07T05:16:20;98070.73;;;-2.04;76.99
69127;BME280;56688;50.234;19.292;2024-01-07T05:18:47;98074.13;;;-2.07;76.87
69127;BME280;56688;50.234;19.292;2024-01-07T05:21:18;98076.95;;;-2.10;76.85
69127;BME280;56688;50.234;19.292;2024-01-07T05:23:45;98071.02;;;-2.12;77.02
69127;BME280;56688;50.234;19.292;2024-01-07T05:26:12;98070.42;;;-2.13;76.70
69127;BME280;56688;50.234;19.292;2024-01-07T05:28:39;98070.83;;;-2.14;76.60
69127;BME280;56688;50.234;19.292;2024-01-07T05:31:14;98075.54;;;-2.14;76.81
69127;BME280;56688;50.234;19.292;2024-01-07T05:33:44;98078.94;;;-2.15;76.69
69127;BME280;56688;50.234;19.292;2024-01-07T05:36:12;98078.20;;;-2.19;76.43
69127;BME280;56688;50.234;19.292;2024-01-07T05:38:41;98080.51;;;-2.22;76.37
69127;BME280;56688;50.234;19.292;2024-01-07T05:41:08;98079.28;;;-2.24;76.84
69127;BME280;56688;50.234;19.292;2024-01-07T05:43:36;98081.95;;;-2.22;76.84
69127;BME280;56688;50.234;19.292;2024-01-07T05:46:03;98082.18;;;-2.23;76.90
69127;BME280;56688;50.234;19.292;2024-01-07T05:48:42;98086.41;;;-2.24;76.83
69127;BME280;56688;50.234;19.292;2024-01-07T05:51:14;98083.27;;;-2.26;76.73
69127;BME280;56688;50.234;19.292;2024-01-07T05:53:44;98089.19;;;-2.28;76.87
69127;BME280;56688;50.234;19.292;2024-01-07T05:56:12;98090.38;;;-2.28;76.84
69127;BME280;56688;50.234;19.292;2024-01-07T05:58:39;98088.90;;;-2.27;76.97
69127;BME280;56688;50.234;19.292;2024-01-07T06:01:07;98093.77;;;-2.27;77.07
69127;BME280;56688;50.234;19.292;2024-01-07T06:03:35;98093.13;;;-2.29;76.90
69127;BME280;56688;50.234;19.292;2024-01-07T06:06:03;98094.84;;;-2.31;76.66
69127;BME280;56688;50.234;19.292;2024-01-07T06:08:30;98100.83;;;-2.34;76.36
69127;BME280;56688;50.234;19.292;2024-01-07T06:10:57;98095.30;;;-2.40;76.39
69127;BME280;56688;50.234;19.292;2024-01-07T06:13:24;98102.71;;;-2.42;76.59
69127;BME280;56688;50.234;19.292;2024-01-07T06:15:52;98102.06;;;-2.46;76.50
69127;BME280;56688;50.234;19.292;2024-01-07T06:18:19;98106.27;;;-2.44;76.73
69127;BME280;56688;50.234;19.292;2024-01-07T06:20:46;98105.01;;;-2.41;76.58
69127;BME280;56688;50.234;19.292;2024-01-07T06:23:14;98105.77;;;-2.37;77.06
69127;BME280;56688;50.234;19.292;2024-01-07T06:25:41;98107.95;;;-2.36;76.83
69127;BME280;56688;50.234;19.292;2024-01-07T06:28:08;98112.92;;;-2.35;76.88
69127;BME280;56688;50.234;19.292;2024-01-07T06:30:37;98114.76;;;-2.36;76.80
69127;BME280;56688;50.234;19.292;2024-01-07T06:33:04;98119.42;;;-2.38;76.84
69127;BME280;56688;50.234;19.292;2024-01-07T06:35:32;98119.71;;;-2.37;76.77
69127;BME280;56688;50.234;19.292;2024-01-07T06:37:59;98124.34;;;-2.36;76.74
69127;BME280;56688;50.234;19.292;2024-01-07T06:40:26;98126.85;;;-2.32;76.80
69127;BME280;56688;50.234;19.292;2024-01-07T06:42:53;98129.93;;;-2.29;76.80
69127;BME280;56688;50.234;19.292;2024-01-07T06:45:20;98134.81;;;-2.27;76.47
69127;BME280;56688;50.234;19.292;2024-01-07T06:47:47;98138.38;;;-2.26;76.96
69127;BME280;56688;50.234;19.292;2024-01-07T06:50:14;98140.59;;;-2.25;76.81
69127;BME280;56688;50.234;19.292;2024-01-07T06:52:41;98141.67;;;-2.26;76.64
69127;BME280;56688;50.234;19.292;2024-01-07T06:55:08;98145.75;;;-2.26;76.54
69127;BME280;56688;50.234;19.292;2024-01-07T06:57:35;98145.96;;;-2.25;76.55
69127;BME280;56688;50.234;19.292;2024-01-07T07:00:03;98150.02;;;-2.23;76.36
69127;BME280;56688;50.234;19.292;2024-01-07T07:02:31;98151.96;;;-2.23;76.06
69127;BME280;56688;50.234;19.292;2024-01-07T07:04:58;98147.54;;;-2.25;76.16
69127;BME280;56688;50.234;19.292;2024-01-07T07:07:25;98148.23;;;-2.29;75.79
69127;BME280;56688;50.234;19.292;2024-01-07T07:09:52;98154.71;;;-2.30;75.54
69127;BME280;56688;50.234;19.292;2024-01-07T07:12:19;98155.79;;;-2.32;75.44
69127;BME280;56688;50.234;19.292;2024-01-07T07:14:47;98162.01;;;-2.29;75.70
69127;BME280;56688;50.234;19.292;2024-01-07T07:17:14;98162.16;;;-2.27;75.66
69127;BME280;56688;50.234;19.292;2024-01-07T07:19:42;98163.50;;;-2.26;75.41
69127;BME280;56688;50.234;19.292;2024-01-07T07:22:11;98164.77;;;-2.29;75.00
69127;BME280;56688;50.234;19.292;2024-01-07T07:24:40;98170.73;;;-2.32;74.93
69127;BME280;56688;50.234;19.292;2024-01-07T07:27:08;98172.52;;;-2.34;75.15
69127;BME280;56688;50.234;19.292;2024-01-07T07:29:35;98175.27;;;-2.34;75.12
69127;BME280;56688;50.234;19.292;2024-01-07T07:32:02;98174.11;;;-2.32;74.98
69127;BME280;56688;50.234;19.292;2024-01-07T07:34:29;98174.73;;;-2.31;74.82
69127;BME280;56688;50.234;19.292;2024-01-07T07:36:56;98176.98;;;-2.27;75.20
69127;BME280;56688;50.234;19.292;2024-01-07T07:39:23;98177.88;;;-2.22;75.05
69127;BME280;56688;50.234;19.292;2024-01-07T07:41:50;98179.22;;;-2.21;74.84
69127;BME280;56688;50.234;19.292;2024-01-07T07:44:17;98184.07;;;-2.20;74.75
69127;BME280;56688;50.234;19.292;2024-01-07T07:46:45;98181.08;;;-2.20;74.46
69127;BME280;56688;50.234;19.292;2024-01-07T07:49:12;98184.61;;;-2.19;74.27
69127;BME280;56688;50.234;19.292;2024-01-07T07:51:40;98186.73;;;-2.15;74.33
69127;BME280;56688;50.234;19.292;2024-01-07T07:54:08;98192.67;;;-2.12;74.13
69127;BME280;56688;50.234;19.292;2024-01-07T07:56:35;98188.62;;;-2.10;73.92
69127;BME280;56688;50.234;19.292;2024-01-07T07:59:02;98192.98;;;-2.10;73.50
69127;BME280;56688;50.234;19.292;2024-01-07T08:01:29;98195.73;;;-2.09;73.48
69127;BME280;56688;50.234;19.292;2024-01-07T08:03:56;98195.02;;;-2.09;73.39
69127;BME280;56688;50.234;19.292;2024-01-07T08:06:24;98197.11;;;-2.09;73.42
69127;BME280;56688;50.234;19.292;2024-01-07T08:08:50;98196.08;;;-2.05;73.73
69127;BME280;56688;50.234;19.292;2024-01-07T08:11:17;98198.88;;;-1.98;73.75
69127;BME280;56688;50.234;19.292;2024-01-07T08:13:45;98203.08;;;-1.91;73.59
69127;BME280;56688;50.234;19.292;2024-01-07T08:16:12;98199.66;;;-1.85;73.35
69127;BME280;56688;50.234;19.292;2024-01-07T08:18:39;98203.17;;;-1.79;73.28
69127;BME280;56688;50.234;19.292;2024-01-07T08:21:07;98201.67;;;-1.75;72.72
69127;BME280;56688;50.234;19.292;2024-01-07T08:23:34;98204.20;;;-1.76;72.83
69127;BME280;56688;50.234;19.292;2024-01-07T08:26:01;98210.75;;;-1.71;72.84
69127;BME280;56688;50.234;19.292;2024-01-07T08:28:28;98208.70;;;-1.66;72.60
69127;BME280;56688;50.234;19.292;2024-01-07T08:30:56;98211.38;;;-1.60;72.42
69127;BME280;56688;50.234;19.292;2024-01-07T08:33:23;98211.17;;;-1.56;71.94
69127;BME280;56688;50.234;19.292;2024-01-07T08:35:50;98215.77;;;-1.52;72.07
69127;BME280;56688;50.234;19.292;2024-01-07T08:38:17;98216.38;;;-1.48;71.63
69127;BME280;56688;50.234;19.292;2024-01-07T08:40:46;98219.46;;;-1.48;71.53
69127;BME280;56688;50.234;19.292;2024-01-07T08:43:12;98223.29;;;-1.46;71.46
69127;BME280;56688;50.234;19.292;2024-01-07T08:45:41;98227.30;;;-1.45;71.22
69127;BME280;56688;50.234;19.292;2024-01-07T08:48:08;98233.60;;;-1.46;70.93
69127;BME280;56688;50.234;19.292;2024-01-07T08:50:35;98234.60;;;-1.45;70.98
69127;BME280;56688;50.234;19.292;2024-01-07T08:53:02;98235.40;;;-1.42;70.74
69127;BME280;56688;50.234;19.292;2024-01-07T08:55:31;98233.81;;;-1.42;70.68
69127;BME280;56688;50.234;19.292;2024-01-07T08:57:59;98235.19;;;-1.41;70.27
69127;BME280;56688;50.234;19.292;2024-01-07T09:00:26;98235.98;;;-1.41;70.22
69127;BME280;56688;50.234;19.292;2024-01-07T09:02:57;98235.14;;;-1.41;70.28
69127;BME280;56688;50.234;19.292;2024-01-07T09:05:24;98239.02;;;-1.39;70.71
69127;BME280;56688;50.234;19.292;2024-01-07T09:07:52;98239.58;;;-1.34;70.76
69127;BME280;56688;50.234;19.292;2024-01-07T09:10:18;98239.64;;;-1.33;70.49
69127;BME280;56688;50.234;19.292;2024-01-07T09:12:47;98244.52;;;-1.31;70.61
69127;BME280;56688;50.234;19.292;2024-01-07T09:15:18;98243.21;;;-1.23;70.88
69127;BME280;56688;50.234;19.292;2024-01-07T09:17:46;98246.94;;;-1.13;70.91
69127;BME280;56688;50.234;19.292;2024-01-07T09:20:13;98248.94;;;-1.03;70.64
69127;BME280;56688;50.234;19.292;2024-01-07T09:22:40;98247.00;;;-0.94;70.36
69127;BME280;56688;50.234;19.292;2024-01-07T09:25:08;98241.44;;;-0.88;70.30
69127;BME280;56688;50.234;19.292;2024-01-07T09:27:36;98244.86;;;-0.83;69.89
69127;BME280;56688;50.234;19.292;2024-01-07T09:30:03;98245.04;;;-0.78;69.55
69127;BME280;56688;50.234;19.292;2024-01-07T09:32:30;98247.09;;;-0.75;69.13
69127;BME280;56688;50.234;19.292;2024-01-07T09:35:00;98248.91;;;-0.72;69.29
69127;BME280;56688;50.234;19.292;2024-01-07T09:37:28;98251.02;;;-0.70;69.02
69127;BME280;56688;50.234;19.292;2024-01-07T09:39:55;98246.52;;;-0.69;68.70
69127;BME280;56688;50.234;19.292;2024-01-07T09:42:22;98244.98;;;-0.63;68.81
69127;BME280;56688;50.234;19.292;2024-01-07T09:44:50;98242.13;;;-0.55;68.69
69127;BME280;56688;50.234;19.292;2024-01-07T09:47:17;98237.52;;;-0.48;68.56
69127;BME280;56688;50.234;19.292;2024-01-07T09:49:44;98239.18;;;-0.41;68.54
69127;BME280;56688;50.234;19.292;2024-01-07T09:52:11;98236.66;;;-0.37;67.99
69127;BME280;56688;50.234;19.292;2024-01-07T09:54:40;98234.06;;;-0.38;67.03
69127;BME280;56688;50.234;19.292;2024-01-07T09:57:08;98235.11;;;-0.38;67.06
69127;BME280;56688;50.234;19.292;2024-01-07T09:59:36;98238.41;;;-0.40;66.95
69127;BME280;56688;50.234;19.292;2024-01-07T10:02:04;98237.52;;;-0.39;67.07
69127;BME280;56688;50.234;19.292;2024-01-07T10:04:32;98240.85;;;-0.38;67.14
69127;BME280;56688;50.234;19.292;2024-01-07T10:07:00;98236.00;;;-0.32;67.18
69127;BME280;56688;50.234;19.292;2024-01-07T10:09:29;98236.21;;;-0.22;67.14
69127;BME280;56688;50.234;19.292;2024-01-07T10:11:58;98237.73;;;-0.09;67.37
69127;BME280;56688;50.234;19.292;2024-01-07T10:14:25;98238.18;;;0.03;66.94
69127;BME280;56688;50.234;19.292;2024-01-07T10:16:54;98232.35;;;0.12;66.60
69127;BME280;56688;50.234;19.292;2024-01-07T10:19:22;98231.34;;;0.18;65.96
69127;BME280;56688;50.234;19.292;2024-01-07T10:22:05;98230.02;;;0.19;65.58
69127;BME280;56688;50.234;19.292;2024-01-07T10:24:36;98229.88;;;0.24;65.78
69127;BME280;56688;50.234;19.292;2024-01-07T10:27:06;98225.25;;;0.29;65.20
69127;BME280;56688;50.234;19.292;2024-01-07T10:29:33;98225.64;;;0.35;65.09
69127;BME280;56688;50.234;19.292;2024-01-07T10:32:00;98220.80;;;0.36;64.55
69127;BME280;56688;50.234;19.292;2024-01-07T10:34:32;98223.00;;;0.42;64.54
69127;BME280;56688;50.234;19.292;2024-01-07T10:37:02;98220.86;;;0.46;64.30
69127;BME280;56688;50.234;19.292;2024-01-07T10:39:29;98223.06;;;0.51;64.45
69127;BME280;56688;50.234;19.292;2024-01-07T10:42:00;98222.54;;;0.57;63.94
69127;BME280;56688;50.234;19.292;2024-01-07T10:44:31;98222.63;;;0.60;63.39
69127;BME280;56688;50.234;19.292;2024-01-07T10:46:59;98219.84;;;0.56;63.05
69127;BME280;56688;50.234;19.292;2024-01-07T10:49:27;98222.85;;;0.53;62.90
69127;BME280;56688;50.234;19.292;2024-01-07T10:52:04;98225.91;;;0.50;63.41
69127;BME280;56688;50.234;19.292;2024-01-07T10:54:32;98225.56;;;0.59;63.76
69127;BME280;56688;50.234;19.292;2024-01-07T10:57:12;98225.48;;;0.66;63.62
69127;BME280;56688;50.234;19.292;2024-01-07T10:59:41;98226.63;;;0.70;63.67
69127;BME280;56688;50.234;19.292;2024-01-07T11:02:09;98224.09;;;0.75;63.28
69127;BME280;56688;50.234;19.292;2024-01-07T11:04:45;98222.48;;;0.76;62.83
69127;BME280;56688;50.234;19.292;2024-01-07T11:07:23;98224.78;;;0.73;62.25
69127;BME280;56688;50.234;19.292;2024-01-07T11:10:04;98228.52;;;0.69;61.97
69127;BME280;56688;50.234;19.292;2024-01-07T11:12:33;98222.41;;;0.65;61.97
69127;BME280;56688;50.234;19.292;2024-01-07T11:15:00;98228.64;;;0.61;62.02
69127;BME280;56688;50.234;19.292;2024-01-07T11:17:42;98223.78;;;0.59;62.27
69127;BME280;56688;50.234;19.292;2024-01-07T11:20:18;98219.99;;;0.52;61.71
69127;BME280;56688;50.234;19.292;2024-01-07T11:22:47;98224.31;;;0.46;61.76
69127;BME280;56688;50.234;19.292;2024-01-07T11:25:28;98225.57;;;0.42;62.49
69127;BME280;56688;50.234;19.292;2024-01-07T11:27:57;98232.09;;;0.40;61.93
69127;BME280;56688;50.234;19.292;2024-01-07T11:30:24;98238.57;;;0.38;61.80
69127;BME280;56688;50.234;19.292;2024-01-07T11:33:00;98241.36;;;0.36;61.96
69127;BME280;56688;50.234;19.292;2024-01-07T11:38:25;98245.20;;;0.36;62.15
69127;BME280;56688;50.234;19.292;2024-01-07T11:40:52;98245.35;;;0.42;62.19
69127;BME280;56688;50.234;19.292;2024-01-07T11:43:19;98247.46;;;0.48;62.63
69127;BME280;56688;50.234;19.292;2024-01-07T11:45:49;98245.24;;;0.54;62.49
69127;BME280;56688;50.234;19.292;2024-01-07T11:48:16;98244.94;;;0.60;62.76
69127;BME280;56688;50.234;19.292;2024-01-07T11:50:43;98244.23;;;0.68;62.40
69127;BME280;56688;50.234;19.292;2024-01-07T11:53:15;98243.33;;;0.72;62.13
69127;BME280;56688;50.234;19.292;2024-01-07T11:55:42;98241.70;;;0.69;61.72
69127;BME280;56688;50.234;19.292;2024-01-07T11:58:10;98241.11;;;0.67;62.01
69127;BME280;56688;50.234;19.292;2024-01-07T12:00:37;98243.13;;;0.64;61.73
69127;BME280;56688;50.234;19.292;2024-01-07T12:03:04;98249.60;;;0.54;61.57
69127;BME280;56688;50.234;19.292;2024-01-07T12:05:31;98250.10;;;0.42;61.79
69127;BME280;56688;50.234;19.292;2024-01-07T12:08:00;98252.34;;;0.37;62.41
69127;BME280;56688;50.234;19.292;2024-01-07T12:10:27;98250.37;;;0.39;62.86
69127;BME280;56688;50.234;19.292;2024-01-07T12:12:55;98251.55;;;0.43;62.98
69127;BME280;56688;50.234;19.292;2024-01-07T12:15:23;98249.17;;;0.47;62.72
69127;BME280;56688;50.234;19.292;2024-01-07T12:17:58;98249.76;;;0.48;62.49
69127;BME280;56688;50.234;19.292;2024-01-07T12:20:29;98247.02;;;0.51;62.51
69127;BME280;56688;50.234;19.292;2024-01-07T12:22:57;98247.19;;;0.47;62.11
69127;BME280;56688;50.234;19.292;2024-01-07T12:25:25;98244.55;;;0.41;61.51
69127;BME280;56688;50.234;19.292;2024-01-07T12:27:52;98240.31;;;0.36;61.61
69127;BME280;56688;50.234;19.292;2024-01-07T12:30:20;98250.63;;;0.44;61.81
69127;BME280;56688;50.234;19.292;2024-01-07T12:32:47;98250.02;;;0.45;61.68
69127;BME280;56688;50.234;19.292;2024-01-07T12:35:16;98252.10;;;0.47;61.85
69127;BME280;56688;50.234;19.292;2024-01-07T12:37:44;98255.02;;;0.52;61.76
69127;BME280;56688;50.234;19.292;2024-01-07T12:40:12;98258.38;;;0.56;61.64
69127;BME280;56688;50.234;19.292;2024-01-07T12:42:40;98254.77;;;0.59;61.63
69127;BME280;56688;50.234;19.292;2024-01-07T12:45:13;98260.39;;;0.55;61.39
69127;BME280;56688;50.234;19.292;2024-01-07T12:47:41;98262.70;;;0.48;61.25
69127;BME280;56688;50.234;19.292;2024-01-07T12:50:10;98266.80;;;0.38;61.17
69127;BME280;56688;50.234;19.292;2024-01-07T12:52:38;98272.08;;;0.29;61.16
69127;BME280;56688;50.234;19.292;2024-01-07T12:55:06;98269.50;;;0.20;61.15
69127;BME280;56688;50.234;19.292;2024-01-07T12:57:34;98273.87;;;0.12;61.19
69127;BME280;56688;50.234;19.292;2024-01-07T13:00:03;98275.54;;;0.02;61.57